createdAt,value
2022-10-24T00:03:59.559Z,0
2022-10-24T00:14:38.435Z,0
2022-10-24T00:19:57.595Z,0
2022-10-24T00:25:16.481Z,0
2022-10-24T00:30:36.821Z,0
2022-10-24T00:35:55.914Z,0
2022-10-24T00:41:15.455Z,0
2022-10-24T00:46:34.731Z,0
2022-10-24T00:53:08.891Z,0
2022-10-24T00:57:14.389Z,0
2022-10-24T01:06:19.883Z,0
2022-10-24T01:13:12.236Z,0
2022-10-24T01:18:31.520Z,0
2022-10-24T01:23:50.619Z,0
2022-10-24T01:29:09.708Z,0
2022-10-24T01:34:29.310Z,0
2022-10-24T01:39:48.572Z,0
2022-10-24T01:45:08.040Z,0
2022-10-24T01:55:46.409Z,0
2022-10-24T02:01:06.184Z,0
2022-10-24T02:06:25.425Z,0
2022-10-24T02:11:44.189Z,0
2022-10-24T02:17:03.275Z,0
2022-10-24T02:22:22.614Z,0
2022-10-24T02:27:42.398Z,0
2022-10-24T02:41:34.442Z,0
2022-10-24T02:43:39.437Z,0
2022-10-24T02:54:18.428Z,0
2022-10-24T02:59:37.695Z,0
2022-10-24T03:04:57.036Z,0
2022-10-24T03:10:16.311Z,0
2022-10-24T03:20:54.675Z,0
2022-10-24T03:26:13.614Z,0
2022-10-24T03:36:51.861Z,0
2022-10-24T03:42:11.481Z,0
2022-10-24T03:47:30.607Z,0
2022-10-24T03:52:50.091Z,0
2022-10-24T03:58:07.591Z,0
2022-10-24T04:03:26.573Z,0
2022-10-24T04:08:46.838Z,0
2022-10-24T04:14:05.628Z,0
2022-10-24T04:19:23.682Z,0
2022-10-24T04:24:43.585Z,0
2022-10-24T04:30:02.464Z,0
2022-10-24T04:35:20.667Z,0
2022-10-24T04:40:39.619Z,0
2022-10-24T04:45:58.445Z,0
2022-10-24T04:51:18.705Z,0
2022-10-24T05:01:56.360Z,0
2022-10-24T05:08:30.455Z,0
2022-10-24T05:17:55.398Z,0
2022-10-24T05:23:13.510Z,0
2022-10-24T05:28:32.524Z,0
2022-10-24T05:33:51.698Z,0
2022-10-24T05:44:29.809Z,0
2022-10-24T05:49:47.956Z,0.0006
2022-10-24T05:55:08.164Z,0.0006
2022-10-24T06:00:34.954Z,0.0018
2022-10-24T06:05:46.407Z,0.0012
2022-10-24T06:12:20.586Z,0
2022-10-24T06:16:37.076Z,0
2022-10-24T06:25:10.165Z,0
2022-10-24T06:27:05.784Z,0
2022-10-24T06:37:43.009Z,0.006
2022-10-24T06:43:01.674Z,0.0221
2022-10-24T06:49:35.886Z,0.0295
2022-10-24T06:53:52.566Z,0.0364
2022-10-24T07:20:16.490Z,0.0962
2022-10-24T07:25:36.151Z,0.1366
2022-10-24T07:30:56.346Z,0.1442
2022-10-24T07:36:15.861Z,0.1223
2022-10-24T07:42:50.017Z,0.1054
2022-10-24T07:46:55.955Z,0.1002
2022-10-24T07:52:15.630Z,0.0969
2022-10-24T08:00:48.679Z,0.0949
2022-10-24T08:02:53.723Z,0.1053
2022-10-24T08:08:27.849Z,0.109
2022-10-24T08:16:45.795Z,0.1033
2022-10-24T08:25:18.817Z,0.1079
2022-10-24T08:34:08.189Z,0.1224
2022-10-24T08:42:41.212Z,0.1625
2022-10-24T09:03:00.243Z,0.1532
2022-10-24T09:08:20.304Z,0.1466
2022-10-24T09:13:38.288Z,0.1472
2022-10-24T09:18:57.053Z,0.1143
2022-10-24T09:29:34.890Z,0.2144
2022-10-24T09:34:54.361Z,0.1861
2022-10-24T09:40:13.657Z,0.1911
2022-10-24T09:45:33.107Z,0.1765
2022-10-24T09:50:52.483Z,0.1628
2022-10-24T09:56:12.011Z,0.1421
2022-10-24T10:04:45.058Z,0.1292
2022-10-24T10:09:00.445Z,0.1365
2022-10-24T10:12:09.679Z,0.1458
2022-10-24T10:17:29.406Z,0.15
2022-10-24T10:22:48.172Z,0.1652
2022-10-24T10:28:07.863Z,0.1784
2022-10-24T10:33:26.716Z,0.1916
2022-10-24T10:38:45.917Z,0.1802
2022-10-24T10:54:43.110Z,0.1685
2022-10-24T11:00:02.166Z,0.1961
2022-10-24T11:06:36.339Z,0.2034
2022-10-24T11:10:40.256Z,0.261
2022-10-24T11:15:59.709Z,0.2473
2022-10-24T11:21:17.909Z,0.2433
2022-10-24T11:26:37.867Z,0.2328
2022-10-24T11:31:57.142Z,0.216
2022-10-24T11:37:16.503Z,0.1963
2022-10-24T11:53:15.494Z,0.1717
2022-10-24T11:58:33.908Z,0.1947
2022-10-24T12:05:32.477Z,0.1991
2022-10-24T12:09:12.155Z,0.2
2022-10-24T12:25:11.286Z,0.1536
2022-10-24T12:35:49.717Z,0.218
2022-10-24T12:41:07.376Z,0.2065
2022-10-24T12:51:45.649Z,0.1815
2022-10-24T12:57:05.249Z,0.151
2022-10-24T13:02:25.609Z,0.1489
2022-10-24T13:07:47.160Z,0.1386
2022-10-24T13:13:12.533Z,0.1287
2022-10-24T13:18:23.222Z,0.1883
2022-10-24T13:29:01.684Z,0.2119
2022-10-24T13:35:35.865Z,0.2704
2022-10-24T13:39:42.450Z,0.2963
2022-10-24T13:48:16.314Z,0.2784
2022-10-24T13:52:30.622Z,0.323
2022-10-24T14:01:03.719Z,0.2813
2022-10-24T14:11:37.476Z,0.2325
2022-10-24T14:16:55.074Z,0.1957
2022-10-24T14:27:42.305Z,0.1735
2022-10-24T14:32:52.064Z,0.1857
2022-10-24T14:38:12.373Z,0.1641
2022-10-24T14:43:32.001Z,0.1465
2022-10-24T14:50:30.593Z,0.1274
2022-10-24T14:54:11.057Z,0.1237
2022-10-24T14:59:30.313Z,0.1167
2022-10-24T15:13:22.257Z,0.0959
2022-10-24T15:15:26.938Z,0.096
2022-10-24T15:20:54.429Z,0.1045
2022-10-24T15:26:05.421Z,0.1085
2022-10-24T15:32:39.616Z,0.0924
2022-10-24T15:36:42.956Z,0.0789
2022-10-24T15:52:41.198Z,0.0629
2022-10-24T15:58:00.149Z,0.0511
2022-10-24T16:08:49.692Z,0.0347
2022-10-24T16:14:00.030Z,0.0272
2022-10-24T16:19:18.709Z,0.0179
2022-10-24T16:24:37.426Z,0.0054
2022-10-24T16:35:16.219Z,0
2022-10-24T16:40:35.838Z,0
2022-10-24T16:51:13.253Z,0
2022-10-24T16:56:32.131Z,0
2022-10-24T17:02:00.312Z,0
2022-10-24T17:07:11.125Z,0
2022-10-24T17:12:29.445Z,0
2022-10-24T17:17:48.930Z,0
2022-10-24T17:23:08.167Z,0
2022-10-24T17:33:47.421Z,0
2022-10-24T17:39:07.673Z,0
2022-10-24T17:45:40.375Z,0
2022-10-24T17:49:45.604Z,0
2022-10-24T17:55:02.490Z,0
2022-10-24T18:00:22.364Z,0
2022-10-24T18:05:40.566Z,0
2022-10-24T18:16:20.189Z,0
2022-10-24T18:21:47.298Z,0
2022-10-24T18:26:58.663Z,0
2022-10-24T18:32:17.642Z,0
2022-10-24T18:37:36.672Z,0
2022-10-24T18:42:55.594Z,0
2022-10-24T18:48:14.866Z,0
2022-10-24T18:54:38.998Z,0
2022-10-24T18:58:53.626Z,0
2022-10-24T19:04:12.703Z,0
2022-10-24T19:14:50.819Z,0
2022-10-24T19:20:09.891Z,0
2022-10-24T19:25:29.165Z,0
2022-10-24T19:30:47.987Z,0
2022-10-24T19:36:06.675Z,0
2022-10-24T19:41:25.344Z,0
2022-10-24T19:52:03.331Z,0
2022-10-24T19:57:23.339Z,0
2022-10-24T20:02:42.270Z,0
2022-10-24T20:08:01.666Z,0
2022-10-24T20:13:20.325Z,0
2022-10-24T20:23:59.423Z,0
2022-10-24T20:35:42.744Z,0
2022-10-24T20:39:56.950Z,0
2022-10-24T20:50:35.826Z,0
2022-10-24T20:55:54.143Z,0
2022-10-24T21:01:14.620Z,0
2022-10-24T21:06:32.906Z,0
2022-10-24T21:11:51.899Z,0
2022-10-24T21:17:10.984Z,0
2022-10-24T21:22:30.163Z,0
2022-10-24T21:27:50.299Z,0
2022-10-24T21:33:19.346Z,0
2022-10-24T21:40:07.914Z,0
2022-10-24T21:44:24.437Z,0
2022-10-24T21:49:06.145Z,0
2022-10-24T21:54:25.532Z,0
2022-10-24T21:59:44.856Z,0
2022-10-24T22:05:04.392Z,0
2022-10-24T22:10:32.375Z,0
2022-10-24T22:21:02.867Z,0
2022-10-24T22:26:21.587Z,0
2022-10-24T22:31:49.986Z,0
2022-10-24T22:37:00.963Z,0
2022-10-24T22:47:40.837Z,0
2022-10-24T22:54:39.421Z,0
2022-10-24T23:03:38.089Z,0
2022-10-24T23:19:36.080Z,0
2022-10-24T23:24:54.501Z,0
2022-10-24T23:30:13.508Z,0
2022-10-24T23:40:51.817Z,0
2022-10-24T23:46:11.108Z,0
2022-10-24T23:56:49.012Z,0
